createdAt,value
2019-02-09T00:01:28.639Z,11.20
2019-02-09T00:03:57.441Z,11.60
2019-02-09T00:06:26.149Z,11.40
2019-02-09T00:08:54.746Z,11.53
2019-02-09T00:11:23.367Z,10.93
2019-02-09T00:13:51.989Z,11.73
2019-02-09T00:16:20.783Z,10.50
2019-02-09T00:18:49.375Z,10.77
2019-02-09T00:21:18.259Z,10.90
2019-02-09T00:23:46.887Z,9.30
2019-02-09T00:26:15.685Z,8.97
2019-02-09T00:28:44.290Z,9.77
2019-02-09T00:31:13.175Z,10.67
2019-02-09T00:33:41.774Z,10.20
2019-02-09T00:36:10.666Z,9.80
2019-02-09T00:38:39.259Z,9.80
2019-02-09T00:41:08.019Z,10.30
2019-02-09T00:43:36.620Z,9.63
2019-02-09T00:46:05.225Z,10.90
2019-02-09T00:48:33.949Z,10.00
2019-02-09T00:51:02.566Z,9.30
2019-02-09T00:53:31.223Z,10.83
2019-02-09T00:55:59.828Z,10.83
2019-02-09T00:58:28.470Z,9.57
2019-02-09T01:00:57.300Z,9.97
2019-02-09T01:03:26.174Z,10.63
2019-02-09T01:05:54.817Z,10.03
2019-02-09T01:08:23.672Z,9.83
2019-02-09T01:10:52.260Z,10.10
2019-02-09T01:13:20.869Z,9.80
2019-02-09T01:15:49.479Z,11.50
2019-02-09T01:18:18.108Z,10.13
2019-02-09T01:20:46.871Z,11.83
2019-02-09T01:23:15.494Z,10.20
2019-02-09T01:25:44.362Z,10.73
2019-02-09T01:28:12.986Z,10.20
2019-02-09T01:30:41.729Z,10.37
2019-02-09T01:33:10.303Z,9.77
2019-02-09T01:35:38.917Z,9.97
2019-02-09T01:38:07.609Z,10.53
2019-02-09T01:40:36.209Z,9.83
2019-02-09T01:43:04.999Z,9.43
2019-02-09T01:45:33.817Z,9.83
2019-02-09T01:48:02.467Z,11.97
2019-02-09T01:50:32.575Z,9.20
2019-02-09T01:53:01.157Z,9.43
2019-02-09T01:55:30.005Z,10.50
2019-02-09T01:57:58.835Z,8.77
2019-02-09T02:00:28.529Z,9.57
2019-02-09T02:02:57.171Z,9.20
2019-02-09T02:05:26.271Z,8.40
2019-02-09T02:07:54.958Z,8.97
2019-02-09T02:10:24.941Z,8.83
2019-02-09T02:12:53.639Z,10.10
2019-02-09T02:15:22.231Z,10.00
2019-02-09T02:17:50.842Z,8.20
2019-02-09T02:20:20.380Z,9.17
2019-02-09T02:22:49.093Z,9.97
2019-02-09T02:25:17.858Z,8.80
2019-02-09T02:27:46.454Z,9.87
2019-02-09T02:30:22.519Z,9.43
2019-02-09T02:32:46.989Z,9.90
2019-02-09T02:35:15.718Z,8.43
2019-02-09T02:37:44.339Z,9.63
2019-02-09T02:40:13.155Z,9.50
2019-02-09T02:42:41.738Z,8.43
2019-02-09T02:45:11.683Z,10.23
2019-02-09T02:47:40.314Z,8.07
2019-02-09T02:50:13.053Z,8.57
2019-02-09T02:52:41.771Z,8.97
2019-02-09T02:55:11.365Z,8.47
2019-02-09T02:57:39.959Z,8.93
2019-02-09T03:00:10.146Z,10.53
2019-02-09T03:02:38.786Z,10.23
2019-02-09T03:05:08.753Z,11.40
2019-02-09T03:07:37.581Z,9.57
2019-02-09T03:10:06.712Z,10.33
2019-02-09T03:12:35.369Z,9.37
2019-02-09T03:15:04.477Z,10.67
2019-02-09T03:17:33.143Z,9.00
2019-02-09T03:20:01.800Z,10.23
2019-02-09T03:22:30.404Z,10.43
2019-02-09T03:24:59.109Z,10.30
2019-02-09T03:27:27.718Z,8.77
2019-02-09T03:29:56.590Z,10.17
2019-02-09T03:32:25.280Z,8.93
2019-02-09T03:34:54.000Z,8.20
2019-02-09T03:37:22.573Z,9.63
2019-02-09T03:39:51.203Z,12.80
2019-02-09T03:42:19.852Z,10.10
2019-02-09T03:44:48.429Z,10.90
2019-02-09T03:47:17.145Z,10.27
2019-02-09T03:49:45.736Z,10.67
2019-02-09T03:52:14.333Z,9.23
2019-02-09T03:54:42.992Z,8.80
2019-02-09T03:57:11.590Z,9.07
2019-02-09T03:59:40.424Z,8.97
2019-02-09T04:02:09.044Z,8.23
2019-02-09T04:04:37.801Z,8.00
2019-02-09T04:07:06.520Z,7.07
2019-02-09T04:09:35.278Z,4.87
2019-02-09T04:12:03.872Z,2.37
2019-02-09T04:14:32.724Z,2.00
2019-02-09T04:17:01.317Z,1.90
2019-02-09T04:19:29.937Z,1.37
2019-02-09T04:21:58.561Z,1.10
2019-02-09T04:24:30.238Z,1.60
2019-02-09T04:26:58.868Z,3.73
2019-02-09T04:29:27.459Z,1.57
2019-02-09T04:31:56.105Z,2.10
2019-02-09T04:34:24.689Z,1.83
2019-02-09T04:36:53.317Z,1.77
2019-02-09T04:39:22.005Z,1.33
2019-02-09T04:41:50.585Z,1.63
2019-02-09T04:44:19.159Z,2.97
2019-02-09T04:46:47.827Z,2.50
2019-02-09T04:49:16.441Z,1.40
2019-02-09T04:51:44.997Z,1.90
2019-02-09T04:54:13.615Z,1.80
2019-02-09T04:56:42.216Z,1.63
2019-02-09T04:59:10.932Z,1.43
2019-02-09T05:01:39.553Z,1.50
2019-02-09T05:04:08.152Z,1.40
2019-02-09T05:06:36.778Z,1.93
2019-02-09T05:09:06.816Z,2.37
2019-02-09T05:11:35.399Z,2.70
2019-02-09T05:14:04.097Z,2.07
2019-02-09T05:16:32.756Z,1.93
2019-02-09T05:19:01.421Z,1.50
2019-02-09T05:21:30.063Z,1.70
2019-02-09T05:23:58.693Z,1.53
2019-02-09T05:26:27.302Z,1.60
2019-02-09T05:28:55.884Z,1.57
2019-02-09T05:31:24.475Z,1.77
2019-02-09T05:33:53.291Z,2.47
2019-02-09T05:36:21.874Z,1.67
2019-02-09T05:38:50.735Z,1.40
2019-02-09T05:41:19.316Z,1.60
2019-02-09T05:43:47.891Z,1.30
2019-02-09T05:46:16.490Z,1.47
2019-02-09T05:48:45.072Z,2.77
2019-02-09T05:51:13.906Z,2.27
2019-02-09T05:53:42.583Z,1.63
2019-02-09T05:56:11.308Z,2.30
2019-02-09T05:58:39.884Z,2.30
2019-02-09T06:01:08.502Z,1.63
2019-02-09T06:03:37.195Z,4.40
2019-02-09T06:06:05.776Z,1.60
2019-02-09T06:08:34.365Z,4.53
2019-02-09T06:11:02.932Z,1.67
2019-02-09T06:13:31.507Z,3.03
2019-02-09T06:16:00.157Z,3.23
2019-02-09T06:18:28.736Z,1.90
2019-02-09T06:20:57.314Z,3.77
2019-02-09T06:23:25.900Z,2.10
2019-02-09T06:25:54.477Z,1.70
2019-02-09T06:28:23.067Z,1.50
2019-02-09T06:30:51.680Z,1.87
2019-02-09T06:33:20.283Z,2.30
2019-02-09T06:35:48.852Z,1.50
2019-02-09T06:38:17.446Z,1.77
2019-02-09T06:40:46.061Z,2.47
2019-02-09T06:43:14.715Z,2.40
2019-02-09T06:45:43.314Z,1.87
2019-02-09T06:48:36.828Z,3.10
2019-02-09T06:51:06.084Z,2.60
2019-02-09T06:53:34.666Z,2.20
2019-02-09T06:56:03.434Z,2.63
2019-02-09T06:58:32.053Z,1.93
2019-02-09T07:01:00.668Z,4.03
2019-02-09T07:03:29.274Z,2.67
2019-02-09T07:05:57.904Z,2.77
2019-02-09T07:08:26.471Z,3.73
2019-02-09T07:10:55.070Z,3.23
2019-02-09T07:13:23.671Z,2.97
2019-02-09T07:15:52.250Z,4.57
2019-02-09T07:18:20.824Z,2.07
2019-02-09T07:20:49.417Z,2.90
2019-02-09T07:23:18.004Z,3.37
2019-02-09T07:25:46.580Z,2.83
2019-02-09T07:28:15.490Z,3.30
2019-02-09T07:30:44.623Z,2.70
2019-02-09T07:33:13.296Z,4.87
2019-02-09T07:35:43.850Z,2.87
2019-02-09T07:38:12.540Z,4.53
2019-02-09T07:40:41.116Z,4.30
2019-02-09T07:43:09.826Z,5.23
2019-02-09T07:45:38.397Z,3.97
2019-02-09T07:48:06.982Z,4.60
2019-02-09T07:50:35.677Z,5.77
2019-02-09T07:53:04.298Z,4.50
2019-02-09T07:55:32.884Z,4.10
2019-02-09T07:58:01.489Z,4.87
2019-02-09T08:00:30.196Z,4.33
2019-02-09T08:02:58.896Z,3.60
2019-02-09T08:05:28.355Z,4.03
2019-02-09T08:07:57.346Z,4.10
2019-02-09T08:10:27.240Z,3.13
2019-02-09T08:12:55.877Z,2.93
2019-02-09T08:15:25.248Z,3.33
2019-02-09T08:17:54.026Z,5.37
2019-02-09T08:20:23.272Z,3.23
2019-02-09T08:22:51.942Z,3.00
2019-02-09T08:25:21.708Z,3.30
2019-02-09T08:27:50.428Z,4.23
2019-02-09T08:30:20.346Z,3.23
2019-02-09T08:32:48.922Z,2.50
2019-02-09T08:35:17.547Z,2.97
2019-02-09T08:37:46.124Z,3.30
2019-02-09T08:40:14.752Z,2.43
2019-02-09T08:42:43.354Z,2.70
2019-02-09T08:45:13.500Z,3.93
2019-02-09T08:47:42.118Z,2.53
2019-02-09T08:50:12.908Z,1.83
2019-02-09T08:52:41.488Z,2.13
2019-02-09T08:55:10.057Z,3.07
2019-02-09T08:57:38.648Z,2.10
2019-02-09T09:00:08.330Z,3.47
2019-02-09T09:02:37.028Z,3.00
2019-02-09T09:05:09.792Z,2.67
2019-02-09T09:07:36.668Z,1.93
2019-02-09T09:10:05.925Z,2.83
2019-02-09T09:12:34.550Z,2.20
2019-02-09T09:15:03.176Z,2.60
2019-02-09T09:17:31.788Z,2.30
2019-02-09T09:20:00.456Z,2.00
2019-02-09T09:22:29.067Z,3.40
2019-02-09T09:24:57.652Z,8.93
2019-02-09T09:27:26.360Z,1.83
2019-02-09T09:29:54.938Z,3.93
2019-02-09T09:32:28.489Z,1.97
2019-02-09T09:34:54.010Z,1.70
2019-02-09T09:37:22.616Z,2.20
2019-02-09T09:39:51.192Z,2.30
2019-02-09T09:42:19.870Z,1.57
2019-02-09T09:44:48.442Z,2.27
2019-02-09T09:47:17.210Z,2.03
2019-02-09T09:49:45.828Z,1.67
2019-02-09T09:52:14.666Z,2.20
2019-02-09T09:54:43.272Z,1.50
2019-02-09T09:57:11.866Z,2.10
2019-02-09T09:59:40.456Z,1.70
2019-02-09T10:02:09.042Z,1.47
2019-02-09T10:04:37.837Z,2.57
2019-02-09T10:07:06.411Z,1.67
2019-02-09T10:09:34.998Z,1.97
2019-02-09T10:12:03.675Z,1.73
2019-02-09T10:14:32.258Z,2.37
2019-02-09T10:17:00.982Z,2.93
2019-02-09T10:19:29.636Z,2.60
2019-02-09T10:21:58.362Z,1.70
2019-02-09T10:24:26.934Z,2.03
2019-02-09T10:26:55.628Z,1.83
2019-02-09T10:29:24.252Z,1.80
2019-02-09T10:31:52.854Z,1.40
2019-02-09T10:34:21.846Z,1.40
2019-02-09T10:36:50.450Z,1.40
2019-02-09T10:39:19.126Z,4.13
2019-02-09T10:41:47.782Z,1.50
2019-02-09T10:44:16.693Z,2.43
2019-02-09T10:46:46.049Z,2.10
2019-02-09T10:49:14.673Z,1.87
2019-02-09T10:51:43.290Z,2.00
2019-02-09T10:54:11.874Z,1.40
2019-02-09T10:56:40.487Z,1.67
2019-02-09T10:59:09.067Z,1.70
2019-02-09T11:01:37.747Z,1.60
2019-02-09T11:04:06.689Z,1.90
2019-02-09T11:06:35.329Z,3.47
2019-02-09T11:09:05.416Z,1.33
2019-02-09T11:11:34.125Z,1.97
2019-02-09T11:14:02.740Z,1.87
2019-02-09T11:16:31.343Z,1.60
2019-02-09T11:18:59.961Z,2.27
2019-02-09T11:21:28.590Z,2.23
2019-02-09T11:23:57.272Z,2.17
2019-02-09T11:26:25.897Z,1.97
2019-02-09T11:28:54.509Z,1.30
2019-02-09T11:31:23.103Z,2.33
2019-02-09T11:33:51.812Z,1.70
2019-02-09T11:36:20.437Z,2.00
2019-02-09T11:38:49.083Z,1.97
2019-02-09T11:41:17.766Z,1.80
2019-02-09T11:43:46.410Z,1.60
2019-02-09T11:46:14.986Z,2.97
2019-02-09T11:48:43.729Z,2.00
2019-02-09T11:51:12.313Z,3.13
2019-02-09T11:53:40.930Z,1.93
2019-02-09T11:56:09.534Z,3.27
2019-02-09T11:58:38.220Z,2.57
2019-02-09T12:01:06.849Z,2.50
2019-02-09T12:03:35.500Z,2.40
2019-02-09T12:06:04.703Z,2.30
2019-02-09T12:08:33.547Z,2.53
2019-02-09T12:11:02.159Z,3.00
2019-02-09T12:13:30.960Z,2.67
2019-02-09T12:15:59.624Z,2.00
2019-02-09T12:18:28.588Z,3.70
2019-02-09T12:20:57.222Z,3.20
2019-02-09T12:23:26.194Z,3.13
2019-02-09T12:25:54.816Z,2.83
2019-02-09T12:28:23.475Z,2.17
2019-02-09T12:30:52.141Z,2.77
2019-02-09T12:33:23.067Z,2.80
2019-02-09T12:35:51.203Z,4.43
2019-02-09T12:38:19.783Z,1.90
2019-02-09T12:40:48.562Z,2.17
2019-02-09T12:43:17.209Z,2.50
2019-02-09T12:45:45.990Z,2.83
2019-02-09T12:48:14.653Z,2.27
2019-02-09T12:50:43.498Z,2.33
2019-02-09T12:53:12.122Z,2.93
2019-02-09T12:55:40.940Z,2.30
2019-02-09T12:58:09.538Z,3.00
2019-02-09T13:00:38.132Z,3.70
2019-02-09T13:03:13.996Z,3.37
2019-02-09T13:05:42.744Z,2.90
2019-02-09T13:08:11.315Z,2.80
2019-02-09T13:10:40.161Z,2.77
2019-02-09T13:13:08.777Z,3.50
2019-02-09T13:15:37.614Z,3.43
2019-02-09T13:18:06.290Z,3.57
2019-02-09T13:20:35.089Z,2.47
2019-02-09T13:23:04.558Z,3.83
2019-02-09T13:25:33.172Z,3.90
2019-02-09T13:28:01.774Z,3.57
2019-02-09T13:30:30.936Z,3.87
2019-02-09T13:32:59.549Z,4.00
2019-02-09T13:35:28.461Z,4.67
2019-02-09T13:37:57.148Z,5.80
2019-02-09T13:40:26.085Z,2.80
2019-02-09T13:42:54.722Z,3.50
2019-02-09T13:45:30.709Z,2.73
2019-02-09T13:47:59.436Z,3.97
2019-02-09T13:50:28.699Z,2.53
2019-02-09T13:52:57.333Z,2.90
2019-02-09T13:55:26.185Z,3.60
2019-02-09T13:57:54.877Z,3.00
2019-02-09T14:00:23.606Z,2.90
2019-02-09T14:02:52.249Z,3.00
2019-02-09T14:05:21.052Z,2.50
2019-02-09T14:07:49.645Z,3.30
2019-02-09T14:10:18.769Z,2.60
2019-02-09T14:12:47.455Z,2.60
2019-02-09T14:15:19.943Z,2.63
2019-02-09T14:17:48.555Z,3.00
2019-02-09T14:20:17.411Z,2.57
2019-02-09T14:22:46.011Z,2.77
2019-02-09T14:25:15.006Z,2.47
2019-02-09T14:27:43.599Z,2.17
2019-02-09T14:30:14.287Z,1.73
2019-02-09T14:32:42.869Z,2.70
2019-02-09T14:35:11.759Z,1.83
2019-02-09T14:37:40.367Z,2.00
2019-02-09T14:40:10.555Z,1.70
2019-02-09T14:42:39.197Z,3.33
2019-02-09T14:45:08.873Z,2.20
2019-02-09T14:47:37.484Z,2.60
2019-02-09T14:50:11.119Z,2.13
2019-02-09T14:52:36.532Z,2.50
2019-02-09T14:55:05.579Z,1.50
2019-02-09T14:57:34.159Z,1.80
2019-02-09T15:00:03.853Z,2.90
2019-02-09T15:02:32.443Z,2.57
2019-02-09T15:05:01.055Z,1.77
2019-02-09T15:07:29.689Z,1.93
2019-02-09T15:09:58.253Z,2.83
2019-02-09T15:12:26.841Z,2.83
2019-02-09T15:14:55.453Z,2.03
2019-02-09T15:17:24.123Z,2.13
2019-02-09T15:19:52.819Z,2.27
2019-02-09T15:22:21.432Z,3.00
2019-02-09T15:24:50.272Z,1.73
2019-02-09T15:27:18.865Z,2.57
2019-02-09T15:29:47.454Z,2.07
2019-02-09T15:32:16.109Z,1.80
2019-02-09T15:34:44.701Z,1.70
2019-02-09T15:37:13.480Z,1.60
2019-02-09T15:39:42.065Z,2.70
2019-02-09T15:42:10.665Z,2.80
2019-02-09T15:44:39.230Z,1.60
2019-02-09T15:47:07.859Z,1.40
2019-02-09T15:49:36.621Z,1.90
2019-02-09T15:52:05.202Z,2.23
2019-02-09T15:54:33.815Z,2.37
2019-02-09T15:57:02.405Z,2.73
2019-02-09T15:59:31.019Z,2.10
2019-02-09T16:01:59.871Z,3.57
2019-02-09T16:04:28.637Z,1.60
2019-02-09T16:06:57.267Z,2.80
2019-02-09T16:09:25.891Z,2.00
2019-02-09T16:11:54.493Z,2.50
2019-02-09T16:14:23.079Z,3.70
2019-02-09T16:16:51.703Z,2.67
2019-02-09T16:19:20.431Z,3.20
2019-02-09T16:21:49.031Z,2.47
2019-02-09T16:24:17.929Z,2.10
2019-02-09T16:26:46.520Z,3.80
2019-02-09T16:29:15.095Z,1.90
2019-02-09T16:31:43.703Z,2.40
2019-02-09T16:34:12.323Z,2.67
2019-02-09T16:36:41.081Z,2.70
2019-02-09T16:39:09.701Z,3.10
2019-02-09T16:41:38.377Z,3.50
2019-02-09T16:44:06.955Z,2.57
2019-02-09T16:46:35.595Z,2.97
2019-02-09T16:49:04.301Z,2.50
2019-02-09T16:51:32.883Z,2.13
2019-02-09T16:54:02.631Z,2.40
2019-02-09T16:56:31.245Z,4.80
2019-02-09T16:58:59.827Z,2.67
2019-02-09T17:01:28.457Z,2.60
2019-02-09T17:03:57.120Z,2.60
2019-02-09T17:06:26.232Z,2.33
2019-02-09T17:08:55.161Z,2.67
2019-02-09T17:11:23.799Z,3.37
2019-02-09T17:13:52.635Z,3.73
2019-02-09T17:16:21.247Z,3.70
2019-02-09T17:18:50.077Z,3.80
2019-02-09T17:21:18.670Z,3.07
2019-02-09T17:23:47.322Z,4.10
2019-02-09T17:26:15.972Z,3.10
2019-02-09T17:28:44.552Z,3.30
2019-02-09T17:31:13.315Z,4.30
2019-02-09T17:33:41.911Z,4.00
2019-02-09T17:36:10.751Z,3.70
2019-02-09T17:38:39.371Z,4.17
2019-02-09T17:41:07.965Z,3.40
2019-02-09T17:43:36.553Z,3.83
2019-02-09T17:46:09.805Z,4.57
2019-02-09T17:48:38.403Z,5.60
2019-02-09T17:51:07.034Z,4.60
2019-02-09T17:53:35.667Z,3.30
2019-02-09T17:56:04.525Z,8.37
2019-02-09T17:58:33.107Z,5.80
2019-02-09T18:01:05.221Z,4.07
2019-02-09T18:03:33.795Z,3.83
2019-02-09T18:06:02.395Z,4.03
2019-02-09T18:08:31.011Z,3.53
2019-02-09T18:11:01.410Z,4.07
2019-02-09T18:13:30.021Z,3.90
2019-02-09T18:16:00.425Z,4.17
2019-02-09T18:18:29.006Z,3.33
2019-02-09T18:20:57.675Z,4.77
2019-02-09T18:23:26.281Z,4.27
2019-02-09T18:25:55.157Z,3.73
2019-02-09T18:28:23.747Z,6.07
2019-02-09T18:30:52.355Z,3.97
2019-02-09T18:33:20.935Z,4.97
2019-02-09T18:35:49.526Z,3.70
2019-02-09T18:38:18.281Z,3.63
2019-02-09T18:40:46.895Z,4.67
2019-02-09T18:43:15.807Z,3.57
2019-02-09T18:45:44.560Z,2.83
2019-02-09T18:48:13.259Z,3.03
2019-02-09T18:50:41.861Z,3.57
2019-02-09T18:53:10.762Z,3.53
2019-02-09T18:55:39.345Z,3.83
2019-02-09T18:58:08.185Z,3.37
2019-02-09T19:00:37.139Z,3.20
2019-02-09T19:03:06.263Z,3.77
2019-02-09T19:05:34.861Z,4.07
2019-02-09T19:08:04.003Z,4.70
2019-02-09T19:10:32.607Z,4.83
2019-02-09T19:13:01.205Z,5.97
2019-02-09T19:15:29.821Z,7.07
2019-02-09T19:17:58.541Z,6.00
2019-02-09T19:20:28.424Z,5.97
2019-02-09T19:22:57.043Z,6.53
2019-02-09T19:25:25.939Z,5.50
2019-02-09T19:27:54.550Z,6.30
2019-02-09T19:30:23.369Z,5.70
2019-02-09T19:32:51.961Z,6.87
2019-02-09T19:35:20.555Z,8.87
2019-02-09T19:37:49.899Z,7.57
2019-02-09T19:40:20.259Z,7.60
2019-02-09T19:42:50.652Z,7.30
2019-02-09T19:45:27.939Z,5.83
2019-02-09T19:47:58.383Z,4.57
2019-02-09T19:50:28.775Z,4.90
2019-02-09T19:52:59.229Z,5.43
2019-02-09T19:55:30.007Z,5.53
2019-02-09T19:57:58.603Z,4.37
2019-02-09T20:00:28.144Z,5.67
2019-02-09T20:02:56.715Z,5.90
2019-02-09T20:05:25.408Z,4.80
2019-02-09T20:07:55.496Z,5.33
2019-02-09T20:10:25.672Z,4.37
2019-02-09T20:12:54.256Z,4.90
2019-02-09T20:15:22.867Z,4.97
2019-02-09T20:17:51.464Z,4.63
2019-02-09T20:20:20.147Z,5.60
2019-02-09T20:22:48.772Z,5.70
2019-02-09T20:25:18.113Z,4.87
2019-02-09T20:27:46.710Z,4.37
2019-02-09T20:30:22.432Z,6.50
2019-02-09T20:32:51.300Z,5.40
2019-02-09T20:35:27.337Z,5.00
2019-02-09T20:37:50.328Z,4.47
2019-02-09T20:40:28.950Z,5.00
2019-02-09T20:43:02.270Z,4.47
2019-02-09T20:45:28.148Z,4.67
2019-02-09T20:47:56.755Z,5.27
2019-02-09T20:50:26.388Z,5.13
2019-02-09T20:52:54.974Z,5.00
2019-02-09T20:55:23.602Z,5.63
2019-02-09T20:57:52.255Z,5.07
2019-02-09T21:00:22.092Z,4.83
2019-02-09T21:02:50.902Z,5.47
2019-02-09T21:05:19.590Z,4.93
2019-02-09T21:07:48.189Z,5.83
2019-02-09T21:10:20.740Z,6.17
2019-02-09T21:12:49.586Z,4.93
2019-02-09T21:15:18.806Z,6.77
2019-02-09T21:17:47.394Z,5.50
2019-02-09T21:20:16.020Z,5.20
2019-02-09T21:22:44.638Z,6.77
2019-02-09T21:25:14.938Z,5.33
2019-02-09T21:27:43.584Z,5.03
2019-02-09T21:30:13.120Z,6.10
2019-02-09T21:32:41.688Z,5.60
2019-02-09T21:35:10.522Z,5.67
2019-02-09T21:37:39.097Z,5.53
2019-02-09T21:40:09.150Z,7.00
2019-02-09T21:42:37.764Z,5.33
2019-02-09T21:45:07.460Z,6.80
2019-02-09T21:47:36.058Z,5.90
2019-02-09T21:50:05.859Z,5.80
2019-02-09T21:52:34.504Z,5.27
2019-02-09T21:55:03.084Z,5.27
2019-02-09T21:57:31.696Z,5.37
2019-02-09T22:00:00.275Z,6.37
2019-02-09T22:02:28.937Z,6.17
2019-02-09T22:04:57.574Z,5.27
2019-02-09T22:07:26.143Z,5.23
2019-02-09T22:09:54.721Z,5.30
2019-02-09T22:12:23.369Z,6.10
2019-02-09T22:14:51.955Z,4.93
2019-02-09T22:17:20.800Z,5.30
2019-02-09T22:19:49.476Z,5.27
2019-02-09T22:22:18.097Z,5.23
2019-02-09T22:24:46.757Z,5.40
2019-02-09T22:27:15.349Z,5.40
2019-02-09T22:29:43.940Z,5.30
2019-02-09T22:32:12.548Z,4.73
2019-02-09T22:34:41.174Z,4.90
2019-02-09T22:37:09.772Z,5.43
2019-02-09T22:39:38.432Z,5.20
2019-02-09T22:42:07.044Z,5.13
2019-02-09T22:44:35.631Z,5.90
2019-02-09T22:47:04.254Z,5.30
2019-02-09T22:49:32.840Z,4.77
2019-02-09T22:52:01.428Z,4.57
2019-02-09T22:54:30.050Z,4.17
2019-02-09T22:56:58.632Z,5.13
2019-02-09T22:59:27.230Z,4.37
2019-02-09T23:01:55.844Z,4.93
2019-02-09T23:04:42.076Z,5.70
2019-02-09T23:07:15.154Z,4.73
2019-02-09T23:09:43.838Z,5.03
2019-02-09T23:12:12.424Z,6.03
2019-02-09T23:14:41.031Z,4.67
2019-02-09T23:17:09.598Z,4.70
2019-02-09T23:19:38.186Z,5.00
2019-02-09T23:22:07.439Z,5.57
2019-02-09T23:24:36.018Z,4.70
2019-02-09T23:27:04.642Z,5.00
2019-02-09T23:29:33.248Z,4.97
2019-02-09T23:32:01.886Z,4.97
2019-02-09T23:34:30.476Z,5.30
2019-02-09T23:36:59.064Z,5.53
2019-02-09T23:39:27.709Z,5.83
2019-02-09T23:41:56.300Z,5.23
2019-02-09T23:44:24.914Z,4.70
2019-02-09T23:46:53.496Z,5.37
2019-02-09T23:49:22.067Z,4.00
2019-02-09T23:51:50.670Z,4.73
2019-02-09T23:54:19.270Z,3.93
2019-02-09T23:56:47.850Z,4.67
2019-02-09T23:59:16.582Z,4.47
